Time;durP1;ratioP1;P1;durP2;ratioP2;P2;SDS_P1;SDS_P2;PMS_P1;PMS_P2;Temp;Humidity;BMP_temperature;BMP_pressure;BME280_temperature;BME280_humidity;BME280_pressure;Samples;Min_cycle;Max_cycle;Signal;HPM_P1;HPM_P2
2024/03/27 00:02:20;;;;;;;;;;;;;;;20.31;45.96;93045.97;10461463;28;2856;-67
2024/03/27 00:07:21;;;;;;;;;;;;;;;20.29;45.93;93050.81;10493231;28;2568;-66
2024/03/27 00:12:21;;;;;;;;;;;;;;;20.27;45.80;93043.25;10463058;28;2634;-67
2024/03/27 00:17:22;;;;;;;;;;;;;;;20.25;45.95;93037.56;10461532;28;2764;-66
2024/03/27 00:22:22;;;;;;;;;;;;;;;20.23;46.09;93036.38;10461063;28;2784;-66
2024/03/27 00:27:22;;;;;;;;;;;;;;;20.21;46.02;93036.72;10457350;28;2809;-66
2024/03/27 00:32:23;;;;;;;;;;;;;;;20.20;45.96;93029.13;10457868;28;2791;-66
2024/03/27 00:37:24;;;;;;;;;;;;;;;20.18;45.95;93021.56;10463016;28;2807;-67
2024/03/27 00:42:26;;;;;;;;;;;;;;;20.16;45.79;93022.97;10447091;28;2574;-66
2024/03/27 00:47:26;;;;;;;;;;;;;;;20.15;46.06;93010.94;10460432;28;2806;-66
2024/03/27 00:52:27;;;;;;;;;;;;;;;20.14;45.84;92998.88;10468039;28;2733;-66
2024/03/27 00:57:27;;;;;;;;;;;;;;;20.12;45.92;92993.19;10462200;28;2822;-66
2024/03/27 01:02:27;;;;;;;;;;;;;;;20.09;45.97;92983.38;10464772;28;2544;-66
2024/03/27 01:07:28;;;;;;;;;;;;;;;20.09;45.89;92972.84;10461571;28;2647;-67
2024/03/27 01:12:28;;;;;;;;;;;;;;;20.07;45.92;92967.91;10460828;28;2327;-66
2024/03/27 01:17:28;;;;;;;;;;;;;;;20.05;45.96;92959.59;10461709;28;2788;-66
2024/03/27 01:22:29;;;;;;;;;;;;;;;20.03;45.85;92955.78;10464866;28;2705;-69
2024/03/27 01:27:29;;;;;;;;;;;;;;;20.03;45.75;92946.00;10466903;28;2779;-66
2024/03/27 01:32:29;;;;;;;;;;;;;;;20.01;45.69;92944.84;10470348;28;2664;-66
2024/03/27 01:37:30;;;;;;;;;;;;;;;20.00;45.55;92946.69;10472003;28;2594;-66
2024/03/27 01:42:33;;;;;;;;;;;;;;;19.99;45.94;92936.53;10467659;28;2876;-65
2024/03/27 01:47:33;;;;;;;;;;;;;;;19.96;45.95;92924.03;10468952;28;2819;-66
2024/03/27 01:52:34;;;;;;;;;;;;;;;19.96;45.88;92918.78;10469211;28;2735;-65
2024/03/27 01:57:37;;;;;;;;;;;;;;;19.94;45.76;92900.72;10466321;28;2865;-65
2024/03/27 02:02:37;;;;;;;;;;;;;;;19.93;45.68;92898.41;10467523;28;2882;-65
2024/03/27 02:07:38;;;;;;;;;;;;;;;19.92;45.71;92886.38;10467633;28;2794;-66
2024/03/27 02:12:39;;;;;;;;;;;;;;;19.90;45.72;92872.81;10480711;28;2922;-65
2024/03/27 02:17:39;;;;;;;;;;;;;;;19.89;45.27;92858.13;10466534;28;2791;-66
2024/03/27 02:22:39;;;;;;;;;;;;;;;19.88;45.66;92843.47;10497796;28;2786;-66
2024/03/27 02:27:40;;;;;;;;;;;;;;;19.87;45.52;92831.41;10465230;28;2824;-65
2024/03/27 02:32:40;;;;;;;;;;;;;;;19.85;45.58;92823.09;10446779;28;2859;-66
2024/03/27 02:37:40;;;;;;;;;;;;;;;19.85;45.53;92836.25;10448926;28;2816;-65
2024/03/27 02:42:40;;;;;;;;;;;;;;;19.83;45.29;92826.06;10464456;28;2599;-66
2024/03/27 02:47:41;;;;;;;;;;;;;;;19.81;45.22;92812.50;10494749;28;2876;-66
2024/03/27 02:52:41;;;;;;;;;;;;;;;19.81;45.16;92806.47;10466383;28;2894;-66
2024/03/27 02:57:44;;;;;;;;;;;;;;;19.80;45.20;92812.84;10464733;28;2842;-65
2024/03/27 03:02:44;;;;;;;;;;;;;;;19.77;45.00;92811.66;10468197;28;2796;-65
2024/03/27 03:07:46;;;;;;;;;;;;;;;19.77;45.17;92829.28;10469016;28;2893;-66
2024/03/27 03:12:46;;;;;;;;;;;;;;;19.75;45.30;92818.34;10492931;28;2822;-66
2024/03/27 03:17:48;;;;;;;;;;;;;;;19.75;44.78;92802.59;10467939;28;2753;-66
2024/03/27 03:22:49;;;;;;;;;;;;;;;19.73;44.97;92810.81;10462280;28;2495;-66
2024/03/27 03:27:49;;;;;;;;;;;;;;;19.73;44.94;92820.56;10463263;28;2343;-66
2024/03/27 03:32:50;;;;;;;;;;;;;;;19.71;44.93;92812.25;10478517;28;2759;-66
2024/03/27 03:37:50;;;;;;;;;;;;;;;19.70;44.92;92813.34;10481016;28;2862;-66
2024/03/27 03:42:50;;;;;;;;;;;;;;;19.69;44.96;92803.94;10461834;28;2855;-66
2024/03/27 03:47:51;;;;;;;;;;;;;;;19.67;45.05;92800.88;10464146;28;2679;-66
2024/03/27 03:52:51;;;;;;;;;;;;;;;19.66;44.84;92794.84;10461764;28;2708;-66
2024/03/27 03:57:51;;;;;;;;;;;;;;;19.65;44.66;92792.56;10460117;28;2554;-66
2024/03/27 04:02:52;;;;;;;;;;;;;;;19.63;44.68;92779.00;10477157;28;2822;-66
2024/03/27 04:07:52;;;;;;;;;;;;;;;19.62;44.70;92767.72;10480517;28;2782;-66
2024/03/27 04:12:52;;;;;;;;;;;;;;;19.63;44.79;92758.75;10462812;28;2771;-66
2024/03/27 04:17:52;;;;;;;;;;;;;;;19.61;44.74;92754.94;10490116;28;2881;-66
2024/03/27 04:22:53;;;;;;;;;;;;;;;19.59;44.51;92749.25;10461059;28;2786;-66
2024/03/27 04:27:53;;;;;;;;;;;;;;;19.58;44.46;92745.88;10488619;28;2732;-66
2024/03/27 04:32:54;;;;;;;;;;;;;;;19.58;44.35;92731.97;10460933;28;2775;-68
2024/03/27 04:37:54;;;;;;;;;;;;;;;19.55;44.36;92717.66;10462047;28;2810;-67
2024/03/27 04:42:54;;;;;;;;;;;;;;;19.55;44.20;92720.28;10442471;28;2570;-66
2024/03/27 04:47:55;;;;;;;;;;;;;;;19.54;44.34;92713.50;10462212;28;2551;-66
2024/03/27 04:52:55;;;;;;;;;;;;;;;19.53;44.27;92711.19;10460428;28;2860;-66
2024/03/27 04:57:55;;;;;;;;;;;;;;;19.53;44.17;92695.44;10459300;28;2768;-66
2024/03/27 05:02:56;;;;;;;;;;;;;;;19.51;44.37;92698.41;10470222;28;2656;-67
2024/03/27 05:07:56;;;;;;;;;;;;;;;19.51;44.26;92672.16;10471542;28;2332;-66
2024/03/27 05:12:56;;;;;;;;;;;;;;;19.53;44.35;92661.28;10468071;28;2718;-67
2024/03/27 05:17:57;;;;;;;;;;;;;;;19.57;44.46;92654.25;10470459;28;2822;-66
2024/03/27 05:22:58;;;;;;;;;;;;;;;19.64;43.98;92654.44;10468156;28;2776;-66
2024/03/27 05:27:58;;;;;;;;;;;;;;;19.72;43.58;92648.22;10465305;28;2868;-66
2024/03/27 05:32:59;;;;;;;;;;;;;;;19.79;43.65;92648.38;10452397;28;2567;-66
2024/03/27 05:38:00;;;;;;;;;;;;;;;19.86;43.15;92649.31;10467766;28;2845;-66
2024/03/27 05:43:00;;;;;;;;;;;;;;;19.91;42.97;92649.03;10468579;28;2953;-67
2024/03/27 05:48:00;;;;;;;;;;;;;;;19.97;42.43;92646.91;10467622;28;2791;-66
2024/03/27 05:53:01;;;;;;;;;;;;;;;20.02;42.16;92646.63;10470371;28;2870;-65
2024/03/27 05:58:01;;;;;;;;;;;;;;;20.05;42.10;92653.84;10495575;28;2876;-65
2024/03/27 06:03:01;;;;;;;;;;;;;;;20.09;41.94;92641.53;10466230;28;2738;-64
2024/03/27 06:08:04;;;;;;;;;;;;;;;20.13;41.70;92660.75;10466058;28;2886;-67
2024/03/27 06:13:04;;;;;;;;;;;;;;;20.16;41.97;92652.16;10460750;28;2845;-66
2024/03/27 06:18:05;;;;;;;;;;;;;;;20.21;41.69;92655.34;10465261;28;2736;-64
2024/03/27 06:23:05;;;;;;;;;;;;;;;20.25;41.21;92658.03;10466904;28;2742;-64
2024/03/27 06:28:05;;;;;;;;;;;;;;;20.24;41.32;92646.75;10461969;28;2763;-63
2024/03/27 06:33:05;;;;;;;;;;;;;;;20.26;40.95;92644.53;10464549;28;2858;-63
2024/03/27 06:38:06;;;;;;;;;;;;;;;20.31;41.17;92650.63;10453250;28;2873;-63
2024/03/27 06:43:08;;;;;;;;;;;;;;;20.35;41.02;92654.84;10461198;28;2780;-62
2024/03/27 06:48:09;;;;;;;;;;;;;;;20.36;40.71;92645.09;10443279;28;2619;-65
2024/03/27 06:53:09;;;;;;;;;;;;;;;20.38;40.90;92640.25;10457449;28;2751;-64
2024/03/27 06:58:09;;;;;;;;;;;;;;;20.38;40.57;92629.72;10457054;28;2767;-61
2024/03/27 07:03:10;;;;;;;;;;;;;;;20.38;40.20;92630.47;10459365;28;2701;-61
2024/03/27 07:08:10;;;;;;;;;;;;;;;20.41;40.13;92639.53;10487314;28;2747;-65
2024/03/27 07:13:10;;;;;;;;;;;;;;;20.45;40.27;92630.63;10453160;28;2737;-66
2024/03/27 07:18:10;;;;;;;;;;;;;;;20.50;40.97;92627.72;10455984;28;2717;-66
2024/03/27 07:23:11;;;;;;;;;;;;;;;20.50;41.09;92633.00;10457936;28;2823;-68
2024/03/27 07:28:11;;;;;;;;;;;;;;;20.55;40.30;92608.25;10454929;28;2784;-66
2024/03/27 07:33:12;;;;;;;;;;;;;;;20.57;41.40;92600.75;10461604;28;2828;-66
2024/03/27 07:38:12;;;;;;;;;;;;;;;20.61;41.32;92586.56;10487112;28;2732;-66
2024/03/27 07:43:13;;;;;;;;;;;;;;;20.66;41.46;92588.91;10454628;28;2729;-68
2024/03/27 07:48:13;;;;;;;;;;;;;;;20.67;41.50;92593.06;10463635;28;2793;-67
2024/03/27 07:53:14;;;;;;;;;;;;;;;20.70;41.63;92581.84;10477176;28;2759;-67
2024/03/27 07:58:14;;;;;;;;;;;;;;;20.72;41.49;92577.00;10461342;28;2861;-68
2024/03/27 08:03:14;;;;;;;;;;;;;;;20.74;41.44;92585.31;10459928;28;2604;-68
2024/03/27 08:08:14;;;;;;;;;;;;;;;20.78;41.30;92586.13;10453377;28;2844;-68
2024/03/27 08:13:15;;;;;;;;;;;;;;;20.80;41.48;92576.00;10454773;28;2912;-68
2024/03/27 08:18:15;;;;;;;;;;;;;;;20.80;41.13;92565.47;10457245;28;2561;-67
2024/03/27 08:23:16;;;;;;;;;;;;;;;20.81;41.58;92561.72;10472624;28;3187;-67
2024/03/27 08:28:16;;;;;;;;;;;;;;;20.85;39.96;92557.31;10457069;28;3002;-67
2024/03/27 08:33:16;;;;;;;;;;;;;;;20.83;40.85;92571.91;10457790;28;2846;-67
2024/03/27 08:38:16;;;;;;;;;;;;;;;20.84;40.88;92568.94;10484349;28;2847;-67
2024/03/27 08:43:17;;;;;;;;;;;;;;;20.83;40.47;92561.38;10462260;28;2923;-67
2024/03/27 08:48:17;;;;;;;;;;;;;;;20.85;40.61;92573.09;10469850;28;2859;-66
2024/03/27 08:53:17;;;;;;;;;;;;;;;20.86;40.07;92571.97;10463841;28;2729;-67
2024/03/27 08:58:18;;;;;;;;;;;;;;;20.84;40.61;92576.81;10468032;28;2733;-67
2024/03/27 09:03:18;;;;;;;;;;;;;;;20.86;40.23;92577.22;10481875;28;2838;-67
2024/03/27 09:08:20;;;;;;;;;;;;;;;20.88;40.60;92587.41;10466856;28;2811;-67
2024/03/27 09:13:20;;;;;;;;;;;;;;;20.90;40.58;92583.31;10495105;28;2901;-67
2024/03/27 09:18:23;;;;;;;;;;;;;;;20.92;39.92;92570.56;10463329;28;2807;-66
2024/03/27 09:23:24;;;;;;;;;;;;;;;20.96;40.20;92567.97;10461693;28;2872;-67
2024/03/27 09:28:25;;;;;;;;;;;;;;;20.97;41.19;92578.19;10460670;28;2937;-67
2024/03/27 09:33:25;;;;;;;;;;;;;;;20.99;41.61;92565.44;10466000;28;2845;-68
2024/03/27 09:38:25;;;;;;;;;;;;;;;21.03;41.57;92554.97;10465196;28;2581;-68
2024/03/27 09:43:25;;;;;;;;;;;;;;;21.06;41.99;92554.28;10460148;28;2789;-68
2024/03/27 09:48:26;;;;;;;;;;;;;;;21.08;42.10;92536.25;10463171;28;2835;-67
2024/03/27 09:53:26;;;;;;;;;;;;;;;21.10;42.10;92531.41;10450285;28;2815;-68
2024/03/27 09:58:26;;;;;;;;;;;;;;;21.12;41.80;92523.13;10460104;28;2823;-68
2024/03/27 10:03:27;;;;;;;;;;;;;;;21.14;41.95;92526.94;10462475;28;2796;-68
2024/03/27 10:08:27;;;;;;;;;;;;;;;21.17;42.23;92517.53;10457875;28;2785;-68
2024/03/27 10:13:30;;;;;;;;;;;;;;;21.18;41.81;92516.44;10461909;28;2922;-69
2024/03/27 10:18:30;;;;;;;;;;;;;;;21.18;41.88;92506.69;10461446;28;2980;-68
2024/03/27 10:23:31;;;;;;;;;;;;;;;21.21;41.98;92521.00;10463402;28;2894;-69
2024/03/27 10:28:32;;;;;;;;;;;;;;;21.23;42.21;92505.59;10460310;28;2807;-69
2024/03/27 10:33:32;;;;;;;;;;;;;;;21.23;41.97;92506.34;10464953;28;2794;-69
2024/03/27 10:38:33;;;;;;;;;;;;;;;21.21;41.61;92497.28;10464093;28;2889;-65
2024/03/27 10:43:37;;;;;;;;;;;;;;;21.15;40.37;92496.84;10459323;28;2770;-65
2024/03/27 10:48:40;;;;;;;;;;;;;;;21.14;40.37;92490.06;10488746;28;2601;-66
2024/03/27 10:53:41;;;;;;;;;;;;;;;21.14;40.90;92491.94;10461655;28;2770;-65
2024/03/27 10:58:42;;;;;;;;;;;;;;;21.13;41.04;92488.53;10459278;28;2760;-65
2024/03/27 11:03:42;;;;;;;;;;;;;;;21.14;40.97;92484.81;10463464;28;2627;-65
2024/03/27 11:08:42;;;;;;;;;;;;;;;21.12;41.42;92486.25;10456111;28;2551;-65
2024/03/27 11:13:52;;;;;;;;;;;;;;;21.07;41.47;92484.69;10457135;28;2558;-66
2024/03/27 11:18:52;;;;;;;;;;;;;;;21.05;41.70;92482.41;10464498;28;2762;-64
2024/03/27 11:23:52;;;;;;;;;;;;;;;21.03;42.06;92466.19;10459304;28;2659;-64
2024/03/27 11:28:53;;;;;;;;;;;;;;;21.00;42.74;92466.09;10463523;28;2806;-64
2024/03/27 11:33:54;;;;;;;;;;;;;;;21.00;42.59;92466.88;10475154;28;2818;-64
2024/03/27 11:38:54;;;;;;;;;;;;;;;20.97;43.00;92467.59;10460431;28;2744;-64
2024/03/27 11:43:54;;;;;;;;;;;;;;;20.97;43.07;92467.59;10459865;28;2616;-64
2024/03/27 11:48:55;;;;;;;;;;;;;;;20.96;43.40;92457.41;10463422;28;2649;-64
2024/03/27 11:53:58;;;;;;;;;;;;;;;20.95;43.41;92450.63;10462556;28;2780;-66
2024/03/27 11:58:58;;;;;;;;;;;;;;;20.93;43.83;92464.16;10457314;28;2820;-65
2024/03/27 12:03:59;;;;;;;;;;;;;;;20.93;43.68;92456.25;10456792;28;2804;-65
2024/03/27 12:08:59;;;;;;;;;;;;;;;20.92;43.92;92467.13;10489612;28;2752;-65
2024/03/27 12:13:59;;;;;;;;;;;;;;;20.90;43.53;92456.94;10460375;28;2868;-64
2024/03/27 12:19:00;;;;;;;;;;;;;;;20.87;43.42;92465.56;10456047;28;2821;-65
2024/03/27 12:24:01;;;;;;;;;;;;;;;20.84;43.30;92455.72;10473311;28;2781;-65
2024/03/27 12:29:01;;;;;;;;;;;;;;;20.79;42.97;92453.38;10456180;28;2799;-65
2024/03/27 12:34:02;;;;;;;;;;;;;;;20.74;43.07;92453.69;10455807;28;2776;-65
2024/03/27 12:39:03;;;;;;;;;;;;;;;20.73;42.72;92457.44;10488612;28;2882;-65
2024/03/27 12:44:04;;;;;;;;;;;;;;;20.70;42.57;92438.97;10458922;28;2773;-65
2024/03/27 12:49:04;;;;;;;;;;;;;;;20.65;42.47;92441.91;10455688;28;2833;-65
2024/03/27 12:54:04;;;;;;;;;;;;;;;20.64;42.17;92435.09;10453525;28;2682;-65
2024/03/27 12:59:05;;;;;;;;;;;;;;;20.62;42.20;92421.53;10455985;28;2897;-64
2024/03/27 13:04:05;;;;;;;;;;;;;;;20.59;41.70;92430.91;10454869;28;2792;-65
2024/03/27 13:09:05;;;;;;;;;;;;;;;20.57;41.70;92427.84;10455038;28;2871;-65
2024/03/27 13:14:05;;;;;;;;;;;;;;;20.57;41.83;92429.72;10454601;28;2920;-65
2024/03/27 13:19:06;;;;;;;;;;;;;;;20.56;41.59;92428.97;10439442;28;2784;-66
2024/03/27 13:24:06;;;;;;;;;;;;;;;20.55;41.37;92424.06;10462697;28;2760;-64
2024/03/27 13:29:06;;;;;;;;;;;;;;;20.52;41.31;92425.53;10462125;28;2798;-64
2024/03/27 13:34:07;;;;;;;;;;;;;;;20.51;41.18;92431.13;10459369;28;2879;-64
2024/03/27 13:39:07;;;;;;;;;;;;;;;20.49;41.12;92433.34;10465653;28;2938;-64
2024/03/27 13:44:08;;;;;;;;;;;;;;;20.45;41.17;92441.19;10463200;28;2799;-63
2024/03/27 13:49:08;;;;;;;;;;;;;;;20.45;41.12;92446.47;10463317;28;2985;-63
2024/03/27 13:54:08;;;;;;;;;;;;;;;20.42;41.06;92443.78;10463860;28;2776;-63
2024/03/27 13:59:08;;;;;;;;;;;;;;;20.40;40.97;92448.63;10459310;28;2796;-63
2024/03/27 14:04:10;;;;;;;;;;;;;;;20.39;41.23;92468.91;10462085;28;2769;-63
2024/03/27 14:09:10;;;;;;;;;;;;;;;20.37;41.20;92501.94;10493236;28;2800;-63
2024/03/27 14:14:11;;;;;;;;;;;;;;;20.35;41.05;92541.75;10454908;28;2804;-62
2024/03/27 14:19:11;;;;;;;;;;;;;;;20.34;40.74;92563.88;10458530;28;2964;-62
2024/03/27 14:24:12;;;;;;;;;;;;;;;20.32;40.88;92568.00;10456861;28;2774;-63
2024/03/27 14:29:12;;;;;;;;;;;;;;;20.30;40.85;92610.41;10458924;28;2838;-63
2024/03/27 14:34:12;;;;;;;;;;;;;;;20.30;41.01;92626.19;10460392;28;2906;-63
2024/03/27 14:39:13;;;;;;;;;;;;;;;20.28;40.79;92641.53;10459308;28;2718;-63
2024/03/27 14:44:13;;;;;;;;;;;;;;;20.32;40.84;92652.16;10461210;28;2640;-63
2024/03/27 14:49:15;;;;;;;;;;;;;;;20.36;40.86;92656.38;10461306;28;2768;-62
2024/03/27 14:54:15;;;;;;;;;;;;;;;20.38;40.75;92667.31;10457999;28;2857;-62
2024/03/27 14:59:15;;;;;;;;;;;;;;;20.47;40.70;92665.25;10455323;28;2760;-62
2024/03/27 15:04:15;;;;;;;;;;;;;;;20.54;40.63;92669.88;10492269;28;2803;-62
2024/03/27 15:09:16;;;;;;;;;;;;;;;20.58;40.72;92683.88;10457467;28;2358;-63
2024/03/27 15:14:16;;;;;;;;;;;;;;;20.64;40.73;92685.13;10460225;28;2852;-62
2024/03/27 15:19:16;;;;;;;;;;;;;;;20.68;40.65;92699.09;10457040;28;2988;-62
2024/03/27 15:24:17;;;;;;;;;;;;;;;20.71;40.55;92703.69;10454646;28;2786;-63
2024/03/27 15:29:18;;;;;;;;;;;;;;;20.73;40.44;92707.47;10458785;28;2843;-62
2024/03/27 15:34:18;;;;;;;;;;;;;;;20.77;40.67;92712.84;10460900;28;2783;-63
2024/03/27 15:39:18;;;;;;;;;;;;;;;20.79;40.43;92723.78;10462363;28;2774;-62
2024/03/27 15:44:19;;;;;;;;;;;;;;;20.81;40.42;92730.19;10454234;28;2781;-63
2024/03/27 15:49:19;;;;;;;;;;;;;;;20.85;40.11;92738.94;10455891;28;2822;-63
2024/03/27 15:54:20;;;;;;;;;;;;;;;20.86;40.19;92737.84;10454645;28;2780;-62
2024/03/27 15:59:20;;;;;;;;;;;;;;;20.89;40.15;92760.06;10453130;28;2824;-62
2024/03/27 16:04:21;;;;;;;;;;;;;;;20.90;39.80;92759.72;10455546;28;2731;-62
2024/03/27 16:09:21;;;;;;;;;;;;;;;20.93;40.17;92780.09;10452451;28;2874;-62
2024/03/27 16:14:21;;;;;;;;;;;;;;;20.95;40.06;92796.31;10453385;28;2642;-62
2024/03/27 16:19:21;;;;;;;;;;;;;;;20.94;39.50;92805.31;10455204;28;2798;-63
2024/03/27 16:24:22;;;;;;;;;;;;;;;20.96;39.73;92811.00;10476037;28;2867;-63
2024/03/27 16:29:22;;;;;;;;;;;;;;;21.03;39.80;92828.84;10454105;28;2775;-63
2024/03/27 16:34:22;;;;;;;;;;;;;;;21.03;39.09;92826.97;10470873;28;2674;-62
2024/03/27 16:39:23;;;;;;;;;;;;;;;21.05;38.97;92837.94;10448545;28;2758;-61
2024/03/27 16:44:23;;;;;;;;;;;;;;;21.06;38.53;92838.72;10450897;28;2736;-62
2024/03/27 16:49:23;;;;;;;;;;;;;;;21.08;38.39;92849.66;10457303;28;2844;-62
2024/03/27 16:54:23;;;;;;;;;;;;;;;21.07;38.24;92861.28;10487784;28;2804;-62
2024/03/27 16:59:24;;;;;;;;;;;;;;;21.11;38.10;92877.91;10465569;28;2799;-62
2024/03/27 17:04:24;;;;;;;;;;;;;;;21.13;38.09;92885.47;10469385;28;2790;-62
2024/03/27 17:09:24;;;;;;;;;;;;;;;21.12;37.27;92897.91;10466904;28;2808;-62
2024/03/27 17:14:25;;;;;;;;;;;;;;;21.17;37.25;92923.19;10464923;28;2864;-62
2024/03/27 17:19:26;;;;;;;;;;;;;;;21.18;36.84;92945.78;10469657;28;2496;-62
2024/03/27 17:24:26;;;;;;;;;;;;;;;21.18;36.95;92941.31;10450282;28;2880;-62
2024/03/27 17:29:26;;;;;;;;;;;;;;;21.21;37.28;92960.91;10468728;28;2845;-62
2024/03/27 17:34:26;;;;;;;;;;;;;;;21.23;38.06;92977.91;10489278;28;2774;-62
2024/03/27 17:39:27;;;;;;;;;;;;;;;21.32;38.12;92973.22;10472120;28;2769;-62
2024/03/27 17:44:28;;;;;;;;;;;;;;;21.41;36.60;92989.56;10468743;28;2800;-62
2024/03/27 17:49:28;;;;;;;;;;;;;;;21.56;35.93;92993.28;10468682;28;2708;-59
2024/03/27 17:54:29;;;;;;;;;;;;;;;21.68;36.34;92998.41;10463304;28;2733;-59
2024/03/27 17:59:29;;;;;;;;;;;;;;;21.74;36.58;93010.25;10497267;28;2860;-60
2024/03/27 18:04:29;;;;;;;;;;;;;;;21.86;36.42;93018.78;10466073;28;2810;-63
2024/03/27 18:09:29;;;;;;;;;;;;;;;21.94;36.26;93038.19;10463380;28;2819;-61
2024/03/27 18:14:30;;;;;;;;;;;;;;;22.01;36.64;93048.84;10466012;28;2897;-60
2024/03/27 18:19:30;;;;;;;;;;;;;;;22.04;35.79;93060.59;10466755;28;2881;-67
2024/03/27 18:24:31;;;;;;;;;;;;;;;22.14;36.03;93063.44;10465651;28;2792;-62
2024/03/27 18:29:31;;;;;;;;;;;;;;;22.16;36.83;93069.16;10467567;28;2787;-66
2024/03/27 18:34:32;;;;;;;;;;;;;;;22.24;36.12;93073.44;10462967;28;2779;-63
2024/03/27 18:39:33;;;;;;;;;;;;;;;22.22;36.10;93078.31;10467602;28;2611;-60
2024/03/27 18:44:34;;;;;;;;;;;;;;;22.23;36.25;93100.97;10463477;28;2780;-60
2024/03/27 18:49:34;;;;;;;;;;;;;;;22.27;36.64;93117.63;10471133;28;2756;-60
2024/03/27 18:54:34;;;;;;;;;;;;;;;22.29;36.30;93133.88;10468565;28;2751;-59
2024/03/27 18:59:37;;;;;;;;;;;;;;;22.33;36.65;93142.63;10468880;28;2619;-63
2024/03/27 19:04:37;;;;;;;;;;;;;;;22.33;36.38;93141.84;10464311;28;2852;-60
2024/03/27 19:09:38;;;;;;;;;;;;;;;22.16;37.49;93158.06;10471617;28;2542;-64
2024/03/27 19:14:38;;;;;;;;;;;;;;;22.29;35.98;93167.41;10476578;28;1907;-63
2024/03/27 19:19:38;;;;;;;;;;;;;;;22.14;36.09;93166.34;10472907;28;1755;-66
2024/03/27 19:24:38;;;;;;;;;;;;;;;22.21;35.91;93169.16;10476563;28;1551;-69
2024/03/27 19:29:39;;;;;;;;;;;;;;;22.22;35.61;93175.16;10468253;28;1960;-68
2024/03/27 19:34:39;;;;;;;;;;;;;;;22.30;35.72;93166.28;10477359;28;1960;-61
2024/03/27 19:39:39;;;;;;;;;;;;;;;22.38;35.75;93166.09;10470353;28;1540;-66
2024/03/27 19:44:40;;;;;;;;;;;;;;;22.36;36.29;93167.56;10486252;28;1475;-61
2024/03/27 19:49:40;;;;;;;;;;;;;;;22.31;36.10;93186.31;10468342;28;2341;-61
2024/03/27 19:54:40;;;;;;;;;;;;;;;22.33;35.93;93197.28;10465584;28;2526;-60
2024/03/27 19:59:41;;;;;;;;;;;;;;;22.31;35.78;93199.50;10462546;28;2768;-62
2024/03/27 20:04:41;;;;;;;;;;;;;;;22.32;35.47;93196.50;10467905;28;2799;-60
2024/03/27 20:09:42;;;;;;;;;;;;;;;22.36;35.64;93188.69;10462176;28;2653;-62
2024/03/27 20:14:46;;;;;;;;;;;;;;;22.23;35.80;93188.03;10464399;28;2860;-62
2024/03/27 20:19:46;;;;;;;;;;;;;;;22.16;35.48;93169.41;10466959;28;2819;-63
2024/03/27 20:24:46;;;;;;;;;;;;;;;22.06;36.08;93169.94;10468812;28;2843;-61
2024/03/27 20:29:47;;;;;;;;;;;;;;;22.00;35.52;93197.69;10465743;28;2871;-61
2024/03/27 20:34:47;;;;;;;;;;;;;;;21.96;35.89;93202.13;10471549;28;2714;-62
2024/03/27 20:39:47;;;;;;;;;;;;;;;21.90;36.90;93200.88;10477301;28;2766;-63
2024/03/27 20:44:48;;;;;;;;;;;;;;;21.81;37.57;93205.50;10468066;28;2774;-63
2024/03/27 20:49:50;;;;;;;;;;;;;;;21.78;37.27;93216.75;10469285;28;2772;-63
2024/03/27 20:54:51;;;;;;;;;;;;;;;21.62;38.17;93229.91;10470610;28;2561;-63
2024/03/27 20:59:52;;;;;;;;;;;;;;;21.58;38.14;93234.34;10470232;28;2798;-62
2024/03/27 21:04:52;;;;;;;;;;;;;;;21.51;38.47;93234.19;10469640;28;2774;-63
2024/03/27 21:09:54;;;;;;;;;;;;;;;21.44;38.74;93241.13;10470475;28;2787;-63
2024/03/27 21:14:55;;;;;;;;;;;;;;;21.39;38.68;93241.41;10482285;28;2585;-63
2024/03/27 21:19:55;;;;;;;;;;;;;;;21.32;39.22;93247.25;10472636;28;2761;-63
2024/03/27 21:24:57;;;;;;;;;;;;;;;21.29;39.08;93250.53;10472434;28;2784;-64
2024/03/27 21:29:58;;;;;;;;;;;;;;;21.23;39.50;93253.75;10472027;28;2718;-64
2024/03/27 21:34:58;;;;;;;;;;;;;;;21.20;39.33;93251.81;10491342;28;2727;-64
2024/03/27 21:39:59;;;;;;;;;;;;;;;21.14;39.42;93243.38;10469543;28;2691;-64
2024/03/27 21:44:59;;;;;;;;;;;;;;;21.11;39.53;93227.47;10469369;28;2774;-64
2024/03/27 21:49:59;;;;;;;;;;;;;;;21.06;39.75;93218.72;10477405;28;2834;-64
2024/03/27 21:54:59;;;;;;;;;;;;;;;21.04;39.79;93228.06;10478220;28;2571;-64
2024/03/27 22:00:00;;;;;;;;;;;;;;;21.00;39.61;93227.94;10486256;28;2725;-64
2024/03/27 22:05:00;;;;;;;;;;;;;;;20.96;39.92;93213.91;10467509;28;2799;-63
2024/03/27 22:10:00;;;;;;;;;;;;;;;20.92;40.02;93210.41;10487573;28;2716;-64
2024/03/27 22:15:01;;;;;;;;;;;;;;;20.89;40.12;93219.00;10468103;28;2669;-64
2024/03/27 22:20:01;;;;;;;;;;;;;;;20.88;40.00;93217.44;10470723;28;2804;-64
2024/03/27 22:25:02;;;;;;;;;;;;;;;20.84;40.33;93207.91;10493998;28;2734;-63
2024/03/27 22:30:03;;;;;;;;;;;;;;;20.80;40.22;93220.22;10467498;28;2633;-64
2024/03/27 22:35:03;;;;;;;;;;;;;;;20.77;39.96;93241.97;10469835;28;2932;-64
2024/03/27 22:40:04;;;;;;;;;;;;;;;20.75;40.20;93233.63;10467645;28;2914;-64
2024/03/27 22:45:05;;;;;;;;;;;;;;;20.71;40.50;93236.16;10465128;28;2528;-64
2024/03/27 22:50:05;;;;;;;;;;;;;;;20.69;40.41;93221.81;10468724;28;2717;-64
2024/03/27 22:55:06;;;;;;;;;;;;;;;20.68;40.24;93252.63;10469387;28;2732;-64
2024/03/27 23:00:18;;;;;;;;;;;;;;;20.65;40.23;93250.66;10463589;28;2779;-64
2024/03/27 23:05:18;;;;;;;;;;;;;;;20.64;40.27;93243.09;10467871;28;2722;-64
2024/03/27 23:10:19;;;;;;;;;;;;;;;20.61;40.30;93244.53;10497492;27;2779;-63
2024/03/27 23:15:19;;;;;;;;;;;;;;;20.59;40.60;93236.19;10466661;28;2767;-64
2024/03/27 23:20:19;;;;;;;;;;;;;;;20.59;40.37;93253.84;10467475;28;2790;-63
2024/03/27 23:25:19;;;;;;;;;;;;;;;20.56;40.53;93251.88;10497287;28;2621;-63
2024/03/27 23:30:20;;;;;;;;;;;;;;;20.54;40.29;93239.06;10461932;28;2624;-64
2024/03/27 23:35:21;;;;;;;;;;;;;;;20.52;40.62;93214.19;10454383;28;3047;-64
2024/03/27 23:40:21;;;;;;;;;;;;;;;20.50;40.63;93226.91;10468381;28;2835;-63
2024/03/27 23:45:21;;;;;;;;;;;;;;;20.48;40.50;93258.81;10463230;28;2815;-64
2024/03/27 23:50:24;;;;;;;;;;;;;;;20.47;40.68;93254.66;10464956;28;2795;-64
2024/03/27 23:55:24;;;;;;;;;;;;;;;20.45;40.56;93250.81;10460918;28;2867;-65
